West Vancouver, British Columbia

4:18 AM PDT on September 01, 2015 (GMT -0700)
West Haven Wynd | | Change Station
CLOSE
Current Station
Personal Weather Station
Location: West Vancouver, BRITISH COLUMBIA
Elevation: 350 ft
Nearby Weather Stations

Elev 350 ft 49.36 °N, 123.26 °W | Updated 10 minutes ago

Overcast
Overcast
57.2 °F
Feels Like 57.2 °F
N
3.2
Wind Variable Wind from ESE

Today is forecast to be nearly the same temperature as yesterday.

Today
High -- | Low -- °F
--% Chance of Precip.
Yesterday
High -- | Low -- °F
Precip. -- in
6:28 AM 7:55 PM
Waning Gibbous, 89% visible
Pressure 29.81 in
Visibility 12.0 miles
Clouds Few 700 ft
Mostly Cloudy 4400 ft
Overcast 6000 ft
Dew Point 56 °F
Humidity 97%
Rainfall 0.14 in
Snow Depth Not available.
UV 0 out of 12
Pollen Not available.
Air Quality Not available.
Flu Activity Not available.
METAR CYVR 011100Z 16009KT 12SM FEW007 BKN044 OVC060 15/14 A2981 RMK SC2SC3SC3 SLP095 DENSITY ALT 100FT
Pressure 29.81 in
Visibility 12.0 miles
Clouds Few 700 ft
Mostly Cloudy 4400 ft
Overcast 6000 ft
Dew Point 56 °F
Humidity 97%
Rainfall 0.14 in
Snow Depth Not available.
UV 0 out of 12
Pollen Not available.
Air Quality Not available.
Flu Activity Not available.
METAR CYVR 011100Z 16009KT 12SM FEW007 BKN044 OVC060 15/14 A2981 RMK SC2SC3SC3 SLP095 DENSITY ALT 100FT

10-Day Weather Forecast

×

Almanac

Astronomy

Sep. 01, 2015 Rise Set
Actual Time
Civil Twilight
Nautical Twilight
Astronomical Twilight
Moon
Length of Visible Light
Length of Day
Tomorrow will be .
, % of the Moon is Illuminated

Today's Extremes

Country Highs Country Lows

Community

WunderPhotos

Upload Photos

1,851,501 photos uploaded!

WunderBlogs® & News

Nearby

Air Quality

  Air Quality AQ Index Pollutant
Not available.

Snow Depth

Station Depth Elevation

Earthquake Activity

City Distance Mag. Time & Date
Minimum magnitude displayed is 2.5.

Coastal Water Temperatures

Place Temperature

Stations

Nearby Weather Stations

Station Location Temp. Windchill Dew Point Humidity Wind Precip. Elev Updated Type